Terminal Aerodrome Forecast
Issued by NWS Houston/Galveston, TX

Home | Current Version | Previous Version | Text Only | Print | Product List | Glossary On
Versions: 1 2 3 4 5 6 7 8 9 10 11 12 13 14 15 16 17 18 19 20 21 22 23 24 25 26 27 28
000
FTUS44 KHGX 200520
TAFCLL
TAF
KCLL 200520Z 2006/2106 13007KT P6SM FEW035 SCT090 BKN120
     FM200800 09005KT P6SM SCT025 BKN050 OVC120
     FM201300 12010KT 6SM BR BKN020
     FM201800 13011KT P6SM BKN025 PROB30 2018/2024 P6SM -TSRA
      OVC025CB
     FM210100 14009KT P6SM VCSH SCT030 BKN050 OVC200=

USA.gov is the U.S. government's official web portal to all federal, state and local government web resources and services.